Terminal Aerodrome Forecast
Issued by NWS

Home | Current Version | Previous Version | Text Only | Print | Product List | Glossary On
Versions: 1 2 3 4 5 6 7 8 9 10 11 12 13 14 15 16 17 18 19 20 21 22 23
000
FTUS43 KAPX 180900 AAA
TAFPLN
TAF AMD
KPLN 180942Z 1810/1906 05007KT P6SM OVC026
     FM181200 05007KT P6SM OVC019
     FM181400 06007KT P6SM BKN024
     FM181600 07005KT P6SM SCT030
     FM190100 00000KT P6SM SKC=

USA.gov is the U.S. government's official web portal to all federal, state and local government web resources and services.